createdAt,value
2022-09-14T00:01:48.994Z,99386.75
2022-09-14T00:04:22.206Z,99387.75
2022-09-14T00:06:52.755Z,99389.06
2022-09-14T00:09:25.228Z,99379.94
2022-09-14T00:11:56.447Z,99384.28
2022-09-14T00:14:29.248Z,99393.06
2022-09-14T00:16:59.450Z,99380.94
2022-09-14T00:19:30.066Z,99378.28
2022-09-14T00:22:01.701Z,99378.81
2022-09-14T00:24:35.182Z,99374.47
2022-09-14T00:27:05.570Z,99371.16
2022-09-14T00:29:38.365Z,99364.84
2022-09-14T00:32:08.615Z,99366.00
2022-09-14T00:34:38.761Z,99359.19
2022-09-14T00:37:09.029Z,99369.31
2022-09-14T00:39:39.572Z,99369.81
2022-09-14T00:42:10.157Z,99367.50
2022-09-14T00:45:04.859Z,99367.84
2022-09-14T00:47:35.779Z,99362.34
2022-09-14T00:50:07.845Z,99358.69
2022-09-14T00:52:41.008Z,99348.75
2022-09-14T00:55:14.244Z,99370.81
2022-09-14T00:57:47.629Z,99365.69
2022-09-14T01:00:23.438Z,99371.16
2022-09-14T01:02:53.841Z,99362.16
2022-09-14T01:05:30.454Z,99367.31
2022-09-14T01:08:12.957Z,99359.53
2022-09-14T01:10:53.477Z,99361.81
2022-09-14T01:13:35.581Z,99364.81
2022-09-14T01:16:18.399Z,99355.03
2022-09-14T01:18:52.552Z,99359.16
2022-09-14T01:21:26.782Z,99359.00
2022-09-14T01:24:04.305Z,99357.84
2022-09-14T01:26:51.690Z,99353.88
2022-09-14T01:29:31.048Z,99359.69
2022-09-14T01:32:07.092Z,99358.34
2022-09-14T01:34:43.272Z,99359.50
2022-09-14T01:37:17.391Z,99363.97
2022-09-14T01:39:51.809Z,99353.69
2022-09-14T01:42:25.588Z,99348.22
2022-09-14T01:45:03.139Z,99349.88
2022-09-14T01:47:38.803Z,99348.53
2022-09-14T01:50:13.748Z,99348.03
2022-09-14T01:52:49.116Z,99337.59
2022-09-14T01:55:23.713Z,99337.09
2022-09-14T01:57:57.726Z,99340.91
2022-09-14T02:00:30.444Z,99342.75
2022-09-14T02:03:06.428Z,99350.19
2022-09-14T02:05:41.244Z,99344.06
2022-09-14T02:08:11.544Z,99332.44
2022-09-14T02:10:41.921Z,99336.91
2022-09-14T02:13:12.473Z,99332.44
2022-09-14T02:15:45.213Z,99322.97
2022-09-14T02:18:15.405Z,99324.94
2022-09-14T02:20:50.173Z,99322.59
2022-09-14T02:23:21.066Z,99319.63
2022-09-14T02:25:51.633Z,99327.06
2022-09-14T02:28:21.865Z,99329.19
2022-09-14T02:31:05.148Z,99318.59
2022-09-14T02:33:43.883Z,99322.72
2022-09-14T02:36:20.093Z,99314.91
2022-09-14T02:38:59.260Z,99317.56
2022-09-14T02:41:40.028Z,99311.59
2022-09-14T02:44:21.829Z,99312.91
2022-09-14T02:47:00.621Z,99302.28
2022-09-14T02:49:41.970Z,99297.16
2022-09-14T02:52:19.048Z,99305.94
2022-09-14T02:54:55.935Z,99297.31
2022-09-14T02:57:26.142Z,99297.78
2022-09-14T02:59:57.349Z,99303.25
2022-09-14T03:02:30.105Z,99294.63
2022-09-14T03:05:00.242Z,99287.97
2022-09-14T03:07:30.322Z,99291.44
2022-09-14T03:10:00.470Z,99295.09
2022-09-14T03:12:30.641Z,99292.44
2022-09-14T03:15:00.803Z,99294.09
2022-09-14T03:17:33.529Z,99298.56
2022-09-14T03:20:04.257Z,99300.41
2022-09-14T03:22:35.748Z,99297.22
2022-09-14T03:25:05.911Z,99294.75
2022-09-14T03:27:36.052Z,99295.91
2022-09-14T03:30:07.290Z,99299.56
2022-09-14T03:32:40.129Z,99300.53
2022-09-14T03:35:11.629Z,99304.19
2022-09-14T03:37:43.035Z,99293.38
2022-09-14T03:40:21.409Z,99297.38
2022-09-14T03:42:53.873Z,99298.69
2022-09-14T03:45:24.462Z,99300.81
2022-09-14T03:47:57.217Z,99302.63
2022-09-14T03:50:27.333Z,99309.06
2022-09-14T03:52:57.474Z,99308.25
2022-09-14T03:55:27.876Z,99310.06
2022-09-14T03:57:58.893Z,99330.13
2022-09-14T04:00:29.072Z,99316.03
2022-09-14T04:03:03.847Z,99307.25
2022-09-14T04:05:34.688Z,99300.13
2022-09-14T04:08:05.162Z,99298.69
2022-09-14T04:10:35.334Z,99292.91
2022-09-14T04:13:05.527Z,99302.19
2022-09-14T04:15:35.578Z,99298.88
2022-09-14T04:18:10.692Z,99300.22
2022-09-14T04:20:40.870Z,99295.44
2022-09-14T04:23:12.433Z,99290.66
2022-09-14T04:25:42.508Z,99278.25
2022-09-14T04:28:20.156Z,99290.53
2022-09-14T04:30:58.470Z,99297.53
2022-09-14T04:33:33.552Z,99296.88
2022-09-14T04:36:05.582Z,99289.25
2022-09-14T04:38:37.302Z,99292.72
2022-09-14T04:41:09.295Z,99290.28
2022-09-14T04:43:40.111Z,99292.13
2022-09-14T04:46:13.758Z,99278.53
2022-09-14T04:48:46.917Z,99274.88
2022-09-14T04:51:18.959Z,99277.22
2022-09-14T04:53:51.313Z,99274.69
2022-09-14T04:56:23.293Z,99267.22
2022-09-14T04:58:55.869Z,99271.50
2022-09-14T05:01:28.657Z,99273.31
2022-09-14T05:04:03.922Z,99271.63
2022-09-14T05:06:36.600Z,99265.16
2022-09-14T05:09:09.320Z,99268.84
2022-09-14T05:11:39.493Z,99272.97
2022-09-14T05:14:09.684Z,99272.44
2022-09-14T05:16:41.750Z,99264.47
2022-09-14T05:19:19.823Z,99267.91
2022-09-14T05:21:50.800Z,99269.16
2022-09-14T05:24:21.956Z,99281.41
2022-09-14T05:27:00.983Z,99283.75
2022-09-14T05:29:32.468Z,99290.38
2022-09-14T05:32:02.746Z,99296.13
2022-09-14T05:34:35.535Z,99300.72
2022-09-14T05:37:05.863Z,99299.53
2022-09-14T05:39:36.025Z,99288.94
2022-09-14T05:42:06.339Z,99304.88
2022-09-14T05:44:36.610Z,99298.44
2022-09-14T05:47:06.836Z,99294.94
2022-09-14T05:49:39.568Z,99295.53
2022-09-14T05:52:09.692Z,99295.94
2022-09-14T05:54:39.851Z,99293.53
2022-09-14T05:57:10.036Z,99287.47
2022-09-14T05:59:40.540Z,99293.56
2022-09-14T06:02:15.354Z,99293.66
2022-09-14T06:04:51.168Z,99285.72
2022-09-14T06:07:21.790Z,99281.59
2022-09-14T06:09:52.382Z,99268.56
2022-09-14T06:12:24.185Z,99260.97
2022-09-14T06:14:54.757Z,99251.41
2022-09-14T06:17:25.405Z,99251.59
2022-09-14T06:20:02.247Z,99229.09
2022-09-14T06:22:35.073Z,99219.34
2022-09-14T06:25:05.184Z,99256.94
2022-09-14T06:27:37.937Z,99252.88
2022-09-14T06:30:09.824Z,99260.16
2022-09-14T06:32:39.998Z,99259.66
2022-09-14T06:35:12.857Z,99249.50
2022-09-14T06:37:42.947Z,99256.63
2022-09-14T06:40:14.078Z,99260.75
2022-09-14T06:42:44.309Z,99256.06
2022-09-14T06:45:14.503Z,99255.56
2022-09-14T06:47:44.811Z,99248.31
2022-09-14T06:50:17.671Z,99251.53
2022-09-14T06:52:47.833Z,99251.00
2022-09-14T06:55:18.186Z,99256.63
2022-09-14T06:57:50.769Z,99248.41
2022-09-14T07:00:21.144Z,99262.88
2022-09-14T07:02:55.397Z,99253.78
2022-09-14T07:05:28.401Z,99250.25
2022-09-14T07:07:58.465Z,99260.72
2022-09-14T07:10:28.808Z,99255.06
2022-09-14T07:12:58.903Z,99250.06
2022-09-14T07:15:29.239Z,99260.31
2022-09-14T07:17:59.423Z,99264.25
2022-09-14T07:20:33.094Z,99258.81
2022-09-14T07:23:03.326Z,99252.50
2022-09-14T07:25:33.592Z,99258.28
2022-09-14T07:28:04.091Z,99257.09
2022-09-14T07:30:37.860Z,99256.84
2022-09-14T07:33:08.290Z,99264.84
2022-09-14T07:35:41.166Z,99254.28
2022-09-14T07:38:11.746Z,99253.38
2022-09-14T07:40:42.056Z,99255.94
2022-09-14T07:43:12.430Z,99255.22
2022-09-14T07:45:42.676Z,99267.34
2022-09-14T07:48:12.891Z,99268.13
2022-09-14T07:50:45.693Z,99259.97
2022-09-14T07:53:17.006Z,99255.47
2022-09-14T07:55:47.361Z,99244.97
2022-09-14T07:58:19.935Z,99242.97
2022-09-14T08:00:50.819Z,99243.97
2022-09-14T08:03:20.975Z,99248.53
2022-09-14T08:06:01.466Z,99250.16
2022-09-14T08:08:32.685Z,99260.88
2022-09-14T08:11:11.298Z,99250.16
2022-09-14T08:13:43.061Z,99229.28
2022-09-14T08:16:14.397Z,99234.03
2022-09-14T08:18:44.833Z,99233.47
2022-09-14T08:21:19.614Z,99237.59
2022-09-14T08:23:49.734Z,99236.59
2022-09-14T08:26:22.667Z,99231.63
2022-09-14T08:28:53.858Z,99245.06
2022-09-14T08:31:25.976Z,99230.00
2022-09-14T08:33:58.344Z,99234.31
2022-09-14T08:36:33.128Z,99211.84
2022-09-14T08:39:03.834Z,99223.78
2022-09-14T08:41:38.427Z,99233.63
2022-09-14T08:44:17.800Z,99238.34
2022-09-14T08:46:51.296Z,99245.34
2022-09-14T08:49:36.636Z,99249.25
2022-09-14T08:52:18.803Z,99236.44
2022-09-14T08:54:53.806Z,99246.63
2022-09-14T08:57:35.927Z,99226.84
2022-09-14T09:00:13.293Z,99240.28
2022-09-14T09:03:01.801Z,99253.72
2022-09-14T09:05:43.231Z,99239.34
2022-09-14T09:08:22.682Z,99243.88
2022-09-14T09:10:56.573Z,99237.50
2022-09-14T09:13:29.698Z,99231.22
2022-09-14T09:16:02.793Z,99223.41
2022-09-14T09:18:40.481Z,99216.97
2022-09-14T09:21:16.616Z,99216.31
2022-09-14T09:23:49.555Z,99206.03
2022-09-14T09:26:26.707Z,99209.78
2022-09-14T09:29:00.470Z,99205.44
2022-09-14T09:31:36.061Z,99210.56
2022-09-14T09:34:06.612Z,99206.63
2022-09-14T09:36:39.754Z,99212.38
2022-09-14T09:39:12.709Z,99210.94
2022-09-14T09:41:47.575Z,99211.16
2022-09-14T09:44:18.419Z,99214.69
2022-09-14T09:46:51.351Z,99220.84
2022-09-14T09:49:24.805Z,99205.16
2022-09-14T09:51:56.252Z,99212.75
2022-09-14T09:54:32.467Z,99213.25
2022-09-14T09:57:05.159Z,99218.59
2022-09-14T09:59:38.217Z,99242.31
2022-09-14T10:02:25.270Z,99253.47
2022-09-14T10:05:01.688Z,99257.13
2022-09-14T10:07:34.209Z,99248.78
2022-09-14T10:10:11.189Z,99262.78
2022-09-14T10:12:48.869Z,99253.25
2022-09-14T10:15:23.337Z,99250.19
2022-09-14T10:18:19.935Z,99246.25
2022-09-14T10:21:09.631Z,99233.69
2022-09-14T10:23:41.331Z,99239.72
2022-09-14T10:26:29.329Z,99247.59
2022-09-14T10:29:27.969Z,99252.16
2022-09-14T10:32:05.239Z,99247.06
2022-09-14T10:34:35.572Z,99238.81
2022-09-14T10:37:19.764Z,99232.88
2022-09-14T10:39:58.479Z,99230.81
2022-09-14T10:42:43.258Z,99247.72
2022-09-14T10:45:22.128Z,99266.28
2022-09-14T10:48:09.448Z,99281.94
2022-09-14T10:50:57.664Z,99288.72
2022-09-14T10:53:44.293Z,99284.63
2022-09-14T10:56:22.001Z,99284.84
2022-09-14T10:59:22.808Z,99278.44
2022-09-14T11:02:24.573Z,99260.94
2022-09-14T11:05:10.298Z,99252.66
2022-09-14T11:07:47.827Z,99246.28
2022-09-14T11:10:24.955Z,99245.63
2022-09-14T11:13:19.525Z,99235.97
2022-09-14T11:16:00.819Z,99234.13
2022-09-14T11:18:40.395Z,99234.94
2022-09-14T11:21:19.345Z,99241.34
2022-09-14T11:23:54.539Z,99234.53
2022-09-14T11:26:31.628Z,99243.59
2022-09-14T11:29:09.399Z,99232.78
2022-09-14T11:32:04.222Z,99239.19
2022-09-14T11:34:42.119Z,99234.28
2022-09-14T11:37:15.597Z,99219.88
2022-09-14T11:39:51.581Z,99231.63
2022-09-14T11:42:26.072Z,99229.78
2022-09-14T11:45:02.166Z,99230.41
2022-09-14T11:47:42.818Z,99214.13
2022-09-14T11:50:22.129Z,99212.44
2022-09-14T11:52:58.662Z,99212.25
2022-09-14T11:55:29.237Z,99210.19
2022-09-14T11:58:00.101Z,99202.97
2022-09-14T12:00:48.560Z,99204.81
2022-09-14T12:03:24.340Z,99196.97
2022-09-14T12:05:54.670Z,99193.66
2022-09-14T12:08:31.098Z,99196.16
2022-09-14T12:11:07.776Z,99188.88
2022-09-14T12:13:38.881Z,99187.13
2022-09-14T12:16:12.424Z,99191.03
2022-09-14T12:18:46.629Z,99185.34
2022-09-14T12:21:24.000Z,99179.97
2022-09-14T12:23:58.042Z,99174.34
2022-09-14T12:26:37.927Z,99170.28
2022-09-14T12:29:29.444Z,99167.56
2022-09-14T12:32:26.044Z,99160.69
2022-09-14T12:35:29.007Z,99161.19
2022-09-14T12:38:02.012Z,99159.88
2022-09-14T12:40:38.159Z,99164.09
2022-09-14T12:43:52.477Z,99154.53
2022-09-14T12:46:49.840Z,99149.25
2022-09-14T12:49:33.658Z,99141.53
2022-09-14T12:52:17.300Z,99140.47
2022-09-14T12:55:03.057Z,99141.03
2022-09-14T12:57:42.611Z,99130.72
2022-09-14T13:00:17.187Z,99136.13
2022-09-14T13:03:14.105Z,99131.38
2022-09-14T13:05:48.052Z,99127.97
2022-09-14T13:08:23.750Z,99122.28
2022-09-14T13:10:56.815Z,99122.16
2022-09-14T13:13:33.367Z,99135.00
2022-09-14T13:16:06.089Z,99126.09
2022-09-14T13:18:38.524Z,99123.47
2022-09-14T13:21:24.087Z,99113.84
2022-09-14T13:23:54.688Z,99122.66
2022-09-14T13:26:30.107Z,99117.88
2022-09-14T13:29:02.747Z,99114.50
2022-09-14T13:31:36.322Z,99107.03
2022-09-14T13:34:07.700Z,99116.81
2022-09-14T13:36:42.950Z,99115.31
2022-09-14T13:39:25.316Z,99104.13
2022-09-14T13:41:59.387Z,99105.41
2022-09-14T13:44:33.490Z,99095.75
2022-09-14T13:47:06.441Z,99087.25
2022-09-14T13:49:38.539Z,99081.88
2022-09-14T13:52:59.882Z,99075.50
2022-09-14T13:55:27.879Z,99072.50
2022-09-14T13:58:26.594Z,99075.22
2022-09-14T14:01:00.198Z,99080.94
2022-09-14T14:03:40.495Z,99074.28
2022-09-14T14:06:26.875Z,99072.53
2022-09-14T14:09:03.212Z,99070.06
2022-09-14T14:11:37.545Z,99072.53
2022-09-14T14:14:27.637Z,99071.81
2022-09-14T14:17:26.117Z,99069.69
2022-09-14T14:19:57.714Z,99064.41
2022-09-14T14:22:31.002Z,99068.16
2022-09-14T14:25:13.425Z,99066.50
2022-09-14T14:27:46.354Z,99058.28
2022-09-14T14:30:21.561Z,99062.84
2022-09-14T14:32:53.745Z,99054.69
2022-09-14T14:35:26.035Z,99058.72
2022-09-14T14:37:56.979Z,99050.22
2022-09-14T14:40:29.552Z,99036.63
2022-09-14T14:43:04.332Z,99036.16
2022-09-14T14:45:38.169Z,99038.06
2022-09-14T14:48:09.063Z,99030.91
2022-09-14T14:50:39.300Z,99035.16
2022-09-14T14:53:09.906Z,99017.81
2022-09-14T14:55:41.108Z,99027.09
2022-09-14T14:58:18.141Z,99015.88
2022-09-14T15:00:52.037Z,99015.72
2022-09-14T15:03:22.422Z,99012.84
2022-09-14T15:05:53.029Z,99012.97
2022-09-14T15:08:23.277Z,99012.75
2022-09-14T15:10:59.112Z,99014.63
2022-09-14T15:13:29.351Z,99009.97
2022-09-14T15:16:02.127Z,98996.28
2022-09-14T15:18:32.422Z,98990.41
2022-09-14T15:21:02.665Z,98993.19
2022-09-14T15:23:33.281Z,98976.22
2022-09-14T15:26:03.586Z,98976.50
2022-09-14T15:28:38.278Z,98962.34
2022-09-14T15:31:11.217Z,98941.81
2022-09-14T15:33:41.494Z,98932.47
2022-09-14T15:36:11.794Z,98920.50
2022-09-14T15:38:42.035Z,98923.72
2022-09-14T15:41:17.457Z,98948.75
2022-09-14T15:43:47.650Z,98974.06
2022-09-14T15:46:20.509Z,98982.28
2022-09-14T15:48:50.806Z,98974.78
2022-09-14T15:51:21.244Z,98960.84
2022-09-14T15:53:52.740Z,98960.53
2022-09-14T15:56:22.890Z,98953.38
2022-09-14T15:58:53.164Z,98951.38
2022-09-14T16:01:25.993Z,98954.06
2022-09-14T16:04:00.367Z,98939.50
2022-09-14T16:06:32.326Z,98940.75
2022-09-14T16:09:04.115Z,98953.44
2022-09-14T16:11:34.793Z,98942.25
2022-09-14T16:14:05.653Z,98950.03
2022-09-14T16:16:39.903Z,98956.50
2022-09-14T16:19:11.991Z,98946.56
2022-09-14T16:21:43.112Z,98939.56
2022-09-14T16:24:15.589Z,98928.88
2022-09-14T16:26:46.063Z,98922.22
2022-09-14T16:29:18.608Z,98918.81
2022-09-14T16:31:51.860Z,98919.22
2022-09-14T16:34:24.437Z,98894.06
2022-09-14T16:36:55.523Z,98911.28
2022-09-14T16:39:27.607Z,98912.16
2022-09-14T16:42:00.054Z,98922.16
2022-09-14T16:44:31.369Z,98924.50
2022-09-14T16:47:04.155Z,98923.16
2022-09-14T16:49:34.358Z,98925.28
2022-09-14T16:52:04.933Z,98923.28
2022-09-14T16:54:35.257Z,98936.16
2022-09-14T16:57:05.425Z,98937.63
2022-09-14T16:59:35.542Z,98936.41
2022-09-14T17:02:08.357Z,98937.50
2022-09-14T17:04:38.587Z,98930.13
2022-09-14T17:07:08.992Z,98939.28
2022-09-14T17:09:41.181Z,98944.66
2022-09-14T17:12:11.687Z,98948.63
2022-09-14T17:14:42.453Z,98953.59
2022-09-14T17:17:15.602Z,98946.78
2022-09-14T17:19:46.057Z,98949.94
2022-09-14T17:22:16.345Z,98954.25
2022-09-14T17:24:46.533Z,98946.66
2022-09-14T17:27:18.934Z,98923.63
2022-09-14T17:29:49.165Z,98914.56
2022-09-14T17:32:21.951Z,98911.25
2022-09-14T17:34:52.272Z,98917.03
2022-09-14T17:37:26.473Z,98897.91
2022-09-14T17:39:56.744Z,98891.94
2022-09-14T17:42:27.097Z,98903.66
2022-09-14T17:44:57.460Z,98899.16
2022-09-14T17:47:30.329Z,98915.19
2022-09-14T17:50:00.574Z,98908.78
2022-09-14T17:52:31.215Z,98909.59
2022-09-14T17:55:01.408Z,98910.00
2022-09-14T17:57:31.562Z,98899.53
2022-09-14T18:00:02.381Z,98896.25
2022-09-14T18:02:35.337Z,98895.22
2022-09-14T18:05:05.597Z,98888.00
2022-09-14T18:07:36.133Z,98894.97
2022-09-14T18:10:07.433Z,98903.00
2022-09-14T18:12:39.903Z,98898.66
2022-09-14T18:15:11.032Z,98902.75
2022-09-14T18:17:47.536Z,98909.72
2022-09-14T18:20:17.830Z,98905.22
2022-09-14T18:22:47.944Z,98909.94
2022-09-14T18:25:18.323Z,98900.66
2022-09-14T18:27:48.561Z,98891.59
2022-09-14T18:30:18.811Z,98889.31
2022-09-14T18:32:53.026Z,98886.03
2022-09-14T18:35:23.617Z,98889.53
2022-09-14T18:37:54.513Z,98885.41
2022-09-14T18:40:24.799Z,98894.59
2022-09-14T18:42:55.122Z,98883.72
2022-09-14T18:45:25.258Z,98890.28
2022-09-14T18:47:58.097Z,98892.97
2022-09-14T18:50:29.261Z,98879.81
2022-09-14T18:52:59.509Z,98876.09
2022-09-14T18:55:29.933Z,98864.81
2022-09-14T18:58:00.166Z,98873.63
2022-09-14T19:00:31.099Z,98873.84
2022-09-14T19:03:07.285Z,98865.19
2022-09-14T19:05:43.029Z,98856.56
2022-09-14T19:08:13.783Z,98859.63
2022-09-14T19:10:43.978Z,98868.84
2022-09-14T19:13:14.126Z,98867.41
2022-09-14T19:15:44.715Z,98863.47
2022-09-14T19:18:17.483Z,98864.94
2022-09-14T19:21:06.019Z,98861.81
2022-09-14T19:23:38.061Z,98862.22
2022-09-14T19:26:10.406Z,98868.78
2022-09-14T19:28:41.378Z,98879.22
2022-09-14T19:31:13.860Z,98866.88
2022-09-14T19:33:47.409Z,98844.28
2022-09-14T19:36:19.964Z,98862.75
2022-09-14T19:38:50.933Z,98869.13
2022-09-14T19:41:41.703Z,98852.44
2022-09-14T19:44:31.783Z,98873.63
2022-09-14T19:47:02.199Z,98887.16
2022-09-14T19:49:35.268Z,98880.81
2022-09-14T19:52:06.181Z,98875.47
2022-09-14T19:54:36.877Z,98887.78
2022-09-14T19:57:07.122Z,98882.06
2022-09-14T19:59:37.857Z,98878.78
2022-09-14T20:02:08.371Z,98887.22
2022-09-14T20:04:41.213Z,98894.41
2022-09-14T20:07:11.400Z,98907.56
2022-09-14T20:09:41.821Z,98911.88
2022-09-14T20:12:11.932Z,98917.22
2022-09-14T20:14:42.139Z,98903.47
2022-09-14T20:17:12.265Z,98904.94
2022-09-14T20:19:45.441Z,98900.22
2022-09-14T20:22:16.922Z,98900.03
2022-09-14T20:24:47.273Z,98897.34
2022-09-14T20:27:17.391Z,98892.41
2022-09-14T20:29:48.834Z,98894.44
2022-09-14T20:32:20.341Z,98889.31
2022-09-14T20:34:53.419Z,98881.88
2022-09-14T20:37:23.877Z,98871.59
2022-09-14T20:39:54.565Z,98866.66
2022-09-14T20:42:25.112Z,98869.13
2022-09-14T20:44:55.454Z,98863.53
2022-09-14T20:47:25.965Z,98863.94
2022-09-14T20:49:59.369Z,98867.38
2022-09-14T20:52:32.573Z,98856.06
2022-09-14T20:55:02.982Z,98867.34
2022-09-14T20:57:35.087Z,98873.47
2022-09-14T21:00:06.629Z,98867.34
2022-09-14T21:02:37.855Z,98867.53
2022-09-14T21:05:12.087Z,98871.25
2022-09-14T21:07:42.770Z,98865.66
2022-09-14T21:10:13.623Z,98864.38
2022-09-14T21:12:44.338Z,98865.81
2022-09-14T21:15:14.950Z,98866.34
2022-09-14T21:17:45.480Z,98862.22
2022-09-14T21:20:18.878Z,98860.97
2022-09-14T21:22:49.166Z,98859.53
2022-09-14T21:25:19.697Z,98861.13
2022-09-14T21:27:50.360Z,98865.44
2022-09-14T21:30:20.970Z,98866.66
2022-09-14T21:32:51.718Z,98870.59
2022-09-14T21:35:24.496Z,98868.53
2022-09-14T21:37:54.964Z,98878.00
2022-09-14T21:40:25.487Z,98868.16
2022-09-14T21:42:56.953Z,98872.28
2022-09-14T21:45:27.552Z,98874.72
2022-09-14T21:47:58.201Z,98870.84
2022-09-14T21:50:31.469Z,98868.47
2022-09-14T21:53:03.763Z,98869.72
2022-09-14T21:55:34.379Z,98864.00
2022-09-14T21:58:04.691Z,98866.28
2022-09-14T22:00:35.279Z,98856.88
2022-09-14T22:03:05.707Z,98848.69
2022-09-14T22:05:38.822Z,98848.69
2022-09-14T22:08:09.166Z,98861.78
2022-09-14T22:10:40.593Z,98851.75
2022-09-14T22:13:10.911Z,98850.34
2022-09-14T22:15:42.455Z,98841.31
2022-09-14T22:18:12.842Z,98841.94
2022-09-14T22:20:45.868Z,98832.94
2022-09-14T22:23:15.971Z,98828.59
2022-09-14T22:25:46.252Z,98823.28
2022-09-14T22:28:16.536Z,98826.72
2022-09-14T22:30:47.771Z,98832.06
2022-09-14T22:33:18.208Z,98823.63
2022-09-14T22:35:57.917Z,98828.56
2022-09-14T22:38:30.591Z,98825.69
2022-09-14T22:41:03.312Z,98823.03
2022-09-14T22:43:34.612Z,98816.88
2022-09-14T22:46:05.361Z,98809.31
2022-09-14T22:48:36.154Z,98828.63
2022-09-14T22:51:10.839Z,98812.16
2022-09-14T22:53:41.527Z,98815.22
2022-09-14T22:56:15.675Z,98813.47
2022-09-14T22:58:46.557Z,98800.50
2022-09-14T23:01:19.336Z,98823.38
2022-09-14T23:03:50.489Z,98819.28
2022-09-14T23:06:23.592Z,98814.38
2022-09-14T23:08:54.005Z,98820.13
2022-09-14T23:11:25.056Z,98813.38
2022-09-14T23:13:56.263Z,98806.84
2022-09-14T23:16:28.514Z,98796.97
2022-09-14T23:19:00.687Z,98791.66
2022-09-14T23:21:34.731Z,98761.66
2022-09-14T23:24:08.210Z,98773.59
2022-09-14T23:26:38.816Z,98768.03
2022-09-14T23:29:11.393Z,98772.16
2022-09-14T23:31:42.698Z,98767.25
2022-09-14T23:34:13.086Z,98771.16
2022-09-14T23:36:46.584Z,98768.72
2022-09-14T23:39:16.970Z,98772.63
2022-09-14T23:41:48.105Z,98776.69
2022-09-14T23:44:18.938Z,98768.94
2022-09-14T23:46:49.520Z,98765.66
2022-09-14T23:49:20.103Z,98766.28
2022-09-14T23:51:53.384Z,98758.88
2022-09-14T23:54:24.115Z,98747.38
2022-09-14T23:56:54.486Z,98747.38
2022-09-14T23:59:24.798Z,98752.31
